Chestnut Mound, Tennessee
Current Conditions -  °F | °C
As of 11:15 PM on Tuesday 25 Nov 2014 (Local Time) from KSRB Reporting Station
Clear Clear  
Wind Chill: 41°   Ceiling: Unl
Heat Index: 41°   Visibility: 10mi
Dew Point: 28°   Wind: 0mph
Humidity: 61%   Direction: NA
Pressure: 30.12"   Gusts: NA
Location:  36.2°N, 85.83°W
Report Text: KSRB 260515Z AUTO 00000KT 10SM CLR 05/M02 A3012 RMK
Loading
Personal Weather Stations






























Interactive Weather Map New forecast layout! Learn more

10-Day Weather Forecast

Advertisements
Track Severe Weather on mobile